sensor_id;sensor_type;location;lat;lon;timestamp;P1;durP1;ratioP1;P2;durP2;ratioP2
77168;SDS011;66281;45.114;20.730;2023-04-29T00:02:56;6.28;;;4.22;;
77168;SDS011;66281;45.114;20.730;2023-04-29T00:12:56;7.78;;;4.18;;
77168;SDS011;66281;45.114;20.730;2023-04-29T00:22:57;7.65;;;3.97;;
77168;SDS011;66281;45.114;20.730;2023-04-29T00:32:57;8.18;;;4.13;;
77168;SDS011;66281;45.114;20.730;2023-04-29T00:42:58;9.55;;;4.50;;
77168;SDS011;66281;45.114;20.730;2023-04-29T00:52:59;8.07;;;4.07;;
77168;SDS011;66281;45.114;20.730;2023-04-29T01:03:00;6.05;;;4.47;;
77168;SDS011;66281;45.114;20.730;2023-04-29T01:13:04;5.43;;;3.65;;
77168;SDS011;66281;45.114;20.730;2023-04-29T01:23:07;7.63;;;5.03;;
77168;SDS011;66281;45.114;20.730;2023-04-29T01:33:17;7.13;;;4.60;;
77168;SDS011;66281;45.114;20.730;2023-04-29T01:43:27;6.85;;;4.90;;
77168;SDS011;66281;45.114;20.730;2023-04-29T01:53:30;11.17;;;4.93;;
77168;SDS011;66281;45.114;20.730;2023-04-29T02:03:30;7.87;;;5.57;;
77168;SDS011;66281;45.114;20.730;2023-04-29T02:13:32;7.27;;;5.10;;
77168;SDS011;66281;45.114;20.730;2023-04-29T02:23:34;7.03;;;4.57;;
77168;SDS011;66281;45.114;20.730;2023-04-29T02:33:35;8.77;;;6.20;;
77168;SDS011;66281;45.114;20.730;2023-04-29T02:43:36;9.77;;;6.22;;
77168;SDS011;66281;45.114;20.730;2023-04-29T02:53:36;9.97;;;6.40;;
77168;SDS011;66281;45.114;20.730;2023-04-29T03:03:37;9.37;;;6.20;;
77168;SDS011;66281;45.114;20.730;2023-04-29T03:13:37;10.40;;;6.63;;
77168;SDS011;66281;45.114;20.730;2023-04-29T03:23:40;9.73;;;6.53;;
77168;SDS011;66281;45.114;20.730;2023-04-29T03:33:43;10.10;;;7.22;;
77168;SDS011;66281;45.114;20.730;2023-04-29T03:43:44;11.10;;;6.00;;
77168;SDS011;66281;45.114;20.730;2023-04-29T03:53:45;11.10;;;6.63;;
77168;SDS011;66281;45.114;20.730;2023-04-29T04:03:46;10.40;;;5.83;;
77168;SDS011;66281;45.114;20.730;2023-04-29T04:13:47;9.48;;;6.25;;
77168;SDS011;66281;45.114;20.730;2023-04-29T04:23:50;9.73;;;6.97;;
77168;SDS011;66281;45.114;20.730;2023-04-29T04:33:55;10.43;;;6.63;;
77168;SDS011;66281;45.114;20.730;2023-04-29T04:43:56;13.45;;;6.80;;
77168;SDS011;66281;45.114;20.730;2023-04-29T04:54:14;14.30;;;7.20;;
77168;SDS011;66281;45.114;20.730;2023-04-29T05:04:15;12.07;;;7.03;;
77168;SDS011;66281;45.114;20.730;2023-04-29T05:14:16;23.50;;;11.88;;
77168;SDS011;66281;45.114;20.730;2023-04-29T05:24:16;17.70;;;10.57;;
77168;SDS011;66281;45.114;20.730;2023-04-29T05:34:18;11.27;;;8.27;;
77168;SDS011;66281;45.114;20.730;2023-04-29T05:44:19;12.83;;;7.47;;
77168;SDS011;66281;45.114;20.730;2023-04-29T05:54:20;13.20;;;7.80;;
77168;SDS011;66281;45.114;20.730;2023-04-29T06:04:21;13.53;;;7.87;;
77168;SDS011;66281;45.114;20.730;2023-04-29T06:14:37;12.87;;;7.53;;
77168;SDS011;66281;45.114;20.730;2023-04-29T06:24:37;12.33;;;6.53;;
77168;SDS011;66281;45.114;20.730;2023-04-29T06:34:39;9.93;;;6.57;;
77168;SDS011;66281;45.114;20.730;2023-04-29T06:44:58;10.00;;;6.30;;
77168;SDS011;66281;45.114;20.730;2023-04-29T06:55:18;15.27;;;7.47;;
77168;SDS011;66281;45.114;20.730;2023-04-29T07:05:18;11.83;;;7.43;;
77168;SDS011;66281;45.114;20.730;2023-04-29T07:15:19;11.30;;;7.10;;
77168;SDS011;66281;45.114;20.730;2023-04-29T07:25:19;9.80;;;7.00;;
77168;SDS011;66281;45.114;20.730;2023-04-29T07:35:20;10.83;;;6.07;;
77168;SDS011;66281;45.114;20.730;2023-04-29T07:45:22;9.97;;;5.43;;
77168;SDS011;66281;45.114;20.730;2023-04-29T07:55:23;36.97;;;12.83;;
77168;SDS011;66281;45.114;20.730;2023-04-29T08:05:24;73.60;;;30.58;;
77168;SDS011;66281;45.114;20.730;2023-04-29T08:15:25;10.95;;;6.10;;
77168;SDS011;66281;45.114;20.730;2023-04-29T08:25:26;5.47;;;3.97;;
77168;SDS011;66281;45.114;20.730;2023-04-29T08:35:27;8.50;;;4.60;;
77168;SDS011;66281;45.114;20.730;2023-04-29T08:45:27;5.90;;;3.88;;
77168;SDS011;66281;45.114;20.730;2023-04-29T08:55:28;8.00;;;4.18;;
77168;SDS011;66281;45.114;20.730;2023-04-29T09:05:28;5.95;;;3.85;;
77168;SDS011;66281;45.114;20.730;2023-04-29T09:15:34;7.03;;;3.30;;
77168;SDS011;66281;45.114;20.730;2023-04-29T09:25:35;7.53;;;3.47;;
77168;SDS011;66281;45.114;20.730;2023-04-29T09:35:38;4.77;;;3.07;;
77168;SDS011;66281;45.114;20.730;2023-04-29T09:45:41;4.20;;;3.17;;
77168;SDS011;66281;45.114;20.730;2023-04-29T09:56:04;4.63;;;2.67;;
77168;SDS011;66281;45.114;20.730;2023-04-29T10:06:04;7.50;;;3.67;;
77168;SDS011;66281;45.114;20.730;2023-04-29T10:16:26;7.10;;;3.40;;
77168;SDS011;66281;45.114;20.730;2023-04-29T10:26:28;3.83;;;3.17;;
77168;SDS011;66281;45.114;20.730;2023-04-29T10:36:29;4.38;;;3.38;;
77168;SDS011;66281;45.114;20.730;2023-04-29T10:46:31;4.33;;;2.60;;
77168;SDS011;66281;45.114;20.730;2023-04-29T10:56:35;4.65;;;3.05;;
77168;SDS011;66281;45.114;20.730;2023-04-29T11:06:41;4.90;;;2.97;;
77168;SDS011;66281;45.114;20.730;2023-04-29T11:16:47;3.22;;;2.33;;
77168;SDS011;66281;45.114;20.730;2023-04-29T11:26:52;2.93;;;2.30;;
77168;SDS011;66281;45.114;20.730;2023-04-29T11:36:54;3.60;;;2.40;;
77168;SDS011;66281;45.114;20.730;2023-04-29T11:47:00;2.20;;;2.00;;
77168;SDS011;66281;45.114;20.730;2023-04-29T11:57:02;4.43;;;2.50;;
77168;SDS011;66281;45.114;20.730;2023-04-29T12:07:04;2.73;;;2.33;;
77168;SDS011;66281;45.114;20.730;2023-04-29T12:17:05;5.65;;;3.13;;
77168;SDS011;66281;45.114;20.730;2023-04-29T12:27:06;4.33;;;2.17;;
77168;SDS011;66281;45.114;20.730;2023-04-29T12:37:08;3.73;;;2.10;;
77168;SDS011;66281;45.114;20.730;2023-04-29T12:47:09;2.83;;;2.40;;
77168;SDS011;66281;45.114;20.730;2023-04-29T12:57:10;3.53;;;2.07;;
77168;SDS011;66281;45.114;20.730;2023-04-29T13:07:11;2.73;;;2.20;;
77168;SDS011;66281;45.114;20.730;2023-04-29T13:17:12;2.13;;;1.93;;
77168;SDS011;66281;45.114;20.730;2023-04-29T13:27:12;3.27;;;2.13;;
77168;SDS011;66281;45.114;20.730;2023-04-29T13:37:13;3.17;;;1.95;;
77168;SDS011;66281;45.114;20.730;2023-04-29T13:47:14;4.05;;;2.78;;
77168;SDS011;66281;45.114;20.730;2023-04-29T13:57:16;3.57;;;2.07;;
77168;SDS011;66281;45.114;20.730;2023-04-29T14:07:16;3.83;;;2.30;;
77168;SDS011;66281;45.114;20.730;2023-04-29T14:17:18;7.53;;;4.60;;
77168;SDS011;66281;45.114;20.730;2023-04-29T14:27:18;3.30;;;2.63;;
77168;SDS011;66281;45.114;20.730;2023-04-29T14:37:19;2.78;;;2.58;;
77168;SDS011;66281;45.114;20.730;2023-04-29T14:47:19;6.67;;;3.27;;
77168;SDS011;66281;45.114;20.730;2023-04-29T14:57:21;6.43;;;2.80;;
77168;SDS011;66281;45.114;20.730;2023-04-29T15:07:21;5.33;;;2.60;;
77168;SDS011;66281;45.114;20.730;2023-04-29T15:17:23;4.50;;;2.50;;
77168;SDS011;66281;45.114;20.730;2023-04-29T15:27:24;5.00;;;3.30;;
77168;SDS011;66281;45.114;20.730;2023-04-29T15:37:25;3.58;;;3.13;;
77168;SDS011;66281;45.114;20.730;2023-04-29T15:47:26;6.28;;;3.97;;
77168;SDS011;66281;45.114;20.730;2023-04-29T15:57:28;12.23;;;7.03;;
77168;SDS011;66281;45.114;20.730;2023-04-29T16:07:28;9.40;;;5.45;;
77168;SDS011;66281;45.114;20.730;2023-04-29T16:17:32;14.77;;;7.37;;
77168;SDS011;66281;45.114;20.730;2023-04-29T16:27:32;7.50;;;4.10;;
77168;SDS011;66281;45.114;20.730;2023-04-29T16:37:33;9.90;;;6.38;;
77168;SDS011;66281;45.114;20.730;2023-04-29T16:47:33;8.83;;;5.60;;
77168;SDS011;66281;45.114;20.730;2023-04-29T16:57:34;8.73;;;5.07;;
77168;SDS011;66281;45.114;20.730;2023-04-29T17:07:35;10.10;;;4.75;;
77168;SDS011;66281;45.114;20.730;2023-04-29T17:17:37;60.00;;;34.83;;
77168;SDS011;66281;45.114;20.730;2023-04-29T17:27:37;16.40;;;9.32;;
77168;SDS011;66281;45.114;20.730;2023-04-29T17:37:39;44.77;;;19.83;;
77168;SDS011;66281;45.114;20.730;2023-04-29T17:47:40;17.25;;;8.82;;
77168;SDS011;66281;45.114;20.730;2023-04-29T17:57:41;39.83;;;18.60;;
77168;SDS011;66281;45.114;20.730;2023-04-29T18:07:42;108.67;;;40.80;;
77168;SDS011;66281;45.114;20.730;2023-04-29T18:17:44;62.80;;;32.03;;
77168;SDS011;66281;45.114;20.730;2023-04-29T18:27:45;39.50;;;23.15;;
77168;SDS011;66281;45.114;20.730;2023-04-29T18:37:46;19.75;;;17.75;;
77168;SDS011;66281;45.114;20.730;2023-04-29T18:47:47;11.87;;;8.00;;
77168;SDS011;66281;45.114;20.730;2023-04-29T18:57:48;15.77;;;9.63;;
77168;SDS011;66281;45.114;20.730;2023-04-29T19:07:48;12.35;;;9.25;;
77168;SDS011;66281;45.114;20.730;2023-04-29T19:17:49;16.38;;;9.38;;
77168;SDS011;66281;45.114;20.730;2023-04-29T19:27:49;42.27;;;22.50;;
77168;SDS011;66281;45.114;20.730;2023-04-29T19:37:50;42.72;;;22.98;;
77168;SDS011;66281;45.114;20.730;2023-04-29T19:47:51;15.43;;;10.52;;
77168;SDS011;66281;45.114;20.730;2023-04-29T19:57:51;21.33;;;13.57;;
77168;SDS011;66281;45.114;20.730;2023-04-29T20:07:52;23.85;;;13.48;;
77168;SDS011;66281;45.114;20.730;2023-04-29T20:17:53;13.10;;;9.23;;
77168;SDS011;66281;45.114;20.730;2023-04-29T20:27:53;18.30;;;10.90;;
77168;SDS011;66281;45.114;20.730;2023-04-29T20:37:54;17.87;;;10.67;;
77168;SDS011;66281;45.114;20.730;2023-04-29T20:47:54;15.93;;;9.35;;
77168;SDS011;66281;45.114;20.730;2023-04-29T20:57:55;14.63;;;9.50;;
77168;SDS011;66281;45.114;20.730;2023-04-29T21:07:55;27.17;;;14.55;;
77168;SDS011;66281;45.114;20.730;2023-04-29T21:17:56;12.50;;;9.57;;
77168;SDS011;66281;45.114;20.730;2023-04-29T21:27:56;17.65;;;11.10;;
77168;SDS011;66281;45.114;20.730;2023-04-29T21:37:58;24.23;;;13.37;;
77168;SDS011;66281;45.114;20.730;2023-04-29T21:47:59;25.50;;;12.85;;
77168;SDS011;66281;45.114;20.730;2023-04-29T21:58:07;17.17;;;10.17;;
77168;SDS011;66281;45.114;20.730;2023-04-29T22:08:08;20.33;;;12.73;;
77168;SDS011;66281;45.114;20.730;2023-04-29T22:18:08;18.08;;;12.15;;
77168;SDS011;66281;45.114;20.730;2023-04-29T22:28:09;18.80;;;10.43;;
77168;SDS011;66281;45.114;20.730;2023-04-29T22:38:09;17.45;;;11.55;;
77168;SDS011;66281;45.114;20.730;2023-04-29T22:48:10;21.17;;;13.30;;
77168;SDS011;66281;45.114;20.730;2023-04-29T22:58:10;18.40;;;12.40;;
77168;SDS011;66281;45.114;20.730;2023-04-29T23:08:11;16.35;;;10.57;;
77168;SDS011;66281;45.114;20.730;2023-04-29T23:18:11;16.67;;;10.60;;
77168;SDS011;66281;45.114;20.730;2023-04-29T23:28:12;21.03;;;12.43;;
77168;SDS011;66281;45.114;20.730;2023-04-29T23:38:13;16.70;;;12.07;;
77168;SDS011;66281;45.114;20.730;2023-04-29T23:48:13;20.30;;;13.50;;
77168;SDS011;66281;45.114;20.730;2023-04-29T23:58:14;26.88;;;17.42;;
